createdAt,value
2017-11-08T00:00:24.650Z,42.27
2017-11-08T00:02:53.472Z,35.90
2017-11-08T00:05:23.082Z,42.57
2017-11-08T00:07:52.745Z,39.07
2017-11-08T00:10:21.583Z,44.33
2017-11-08T00:12:51.187Z,42.47
2017-11-08T00:15:20.801Z,36.70
2017-11-08T00:17:50.400Z,48.13
2017-11-08T00:20:20.007Z,46.23
2017-11-08T00:22:49.608Z,35.37
2017-11-08T00:25:19.244Z,37.67
2017-11-08T00:27:48.395Z,39.47
2017-11-08T00:30:17.228Z,37.87
2017-11-08T00:32:46.085Z,48.53
2017-11-08T00:35:15.697Z,44.70
2017-11-08T00:37:44.538Z,40.23
2017-11-08T00:40:13.368Z,35.27
2017-11-08T00:42:42.360Z,35.17
2017-11-08T00:45:11.544Z,41.10
2017-11-08T00:47:40.368Z,36.17
2017-11-08T00:50:09.216Z,38.63
2017-11-08T00:52:38.080Z,35.80
2017-11-08T00:55:06.939Z,41.17
2017-11-08T00:57:36.742Z,38.00
2017-11-08T01:00:07.342Z,47.07
2017-11-08T01:02:36.191Z,37.33
2017-11-08T01:05:05.828Z,42.53
2017-11-08T01:07:34.688Z,39.70
2017-11-08T01:10:04.291Z,42.73
2017-11-08T01:12:33.898Z,42.93
2017-11-08T01:15:03.531Z,33.93
2017-11-08T01:17:32.387Z,37.60
2017-11-08T01:20:01.284Z,34.87
2017-11-08T01:22:30.101Z,37.23
2017-11-08T01:24:59.388Z,40.07
2017-11-08T01:27:28.448Z,37.47
2017-11-08T01:29:57.290Z,45.63
2017-11-08T01:32:26.126Z,39.77
2017-11-08T01:34:55.744Z,38.77
2017-11-08T01:37:26.419Z,36.17
2017-11-08T01:39:55.267Z,35.87
2017-11-08T01:42:24.896Z,43.30
2017-11-08T01:44:53.754Z,41.80
2017-11-08T01:47:22.598Z,42.43
2017-11-08T01:49:54.254Z,44.90
2017-11-08T01:52:23.095Z,39.90
2017-11-08T01:54:52.709Z,43.80
2017-11-08T01:57:22.308Z,44.03
2017-11-08T01:59:51.959Z,46.03
2017-11-08T02:02:20.784Z,46.80
2017-11-08T02:04:49.626Z,34.57
2017-11-08T02:07:18.487Z,43.20
2017-11-08T02:09:48.114Z,42.60
2017-11-08T02:12:17.723Z,48.90
2017-11-08T02:14:46.576Z,41.90
2017-11-08T02:17:15.403Z,39.37
2017-11-08T02:19:44.242Z,43.10
2017-11-08T02:22:13.083Z,41.67
2017-11-08T02:24:41.941Z,39.23
2017-11-08T02:27:11.582Z,40.97
2017-11-08T02:29:40.479Z,41.97
2017-11-08T02:32:09.308Z,38.00
2017-11-08T02:34:38.152Z,42.77
2017-11-08T02:37:06.987Z,35.67
2017-11-08T02:39:35.823Z,41.23
2017-11-08T02:42:05.579Z,37.20
2017-11-08T02:44:34.419Z,43.97
2017-11-08T02:47:03.259Z,38.03
2017-11-08T02:49:32.891Z,39.00
2017-11-08T02:52:01.727Z,43.00
2017-11-08T02:54:30.571Z,38.90
2017-11-08T02:56:59.391Z,42.60
2017-11-08T02:59:28.346Z,42.13
2017-11-08T03:01:57.191Z,39.83
2017-11-08T03:04:26.031Z,39.40
2017-11-08T03:06:55.635Z,43.20
2017-11-08T03:09:24.483Z,45.53
2017-11-08T03:11:53.346Z,43.53
2017-11-08T03:14:22.204Z,42.27
2017-11-08T03:16:52.612Z,37.80
2017-11-08T03:19:21.403Z,39.90
2017-11-08T03:21:50.244Z,36.20
2017-11-08T03:24:19.091Z,33.47
2017-11-08T03:26:47.935Z,43.27
2017-11-08T03:29:16.788Z,37.53
2017-11-08T03:31:46.428Z,41.53
2017-11-08T03:34:15.258Z,38.80
2017-11-08T03:36:44.129Z,40.50
2017-11-08T03:39:12.961Z,40.47
2017-11-08T03:41:42.568Z,41.80
2017-11-08T03:44:12.170Z,43.07
2017-11-08T03:46:41.784Z,41.43
2017-11-08T03:49:10.619Z,42.20
2017-11-08T03:51:39.467Z,44.40
2017-11-08T03:54:08.306Z,38.20
2017-11-08T03:56:38.047Z,43.03
2017-11-08T03:59:06.870Z,35.83
2017-11-08T04:01:36.476Z,42.03
2017-11-08T04:04:06.084Z,44.83
2017-11-08T04:06:35.685Z,36.80
2017-11-08T04:09:05.298Z,39.33
2017-11-08T04:11:34.903Z,38.83
2017-11-08T04:14:04.555Z,38.17
2017-11-08T04:16:33.387Z,39.60
2017-11-08T04:19:02.467Z,43.80
2017-11-08T04:21:31.302Z,40.10
2017-11-08T04:24:00.137Z,41.13
2017-11-08T04:26:28.974Z,40.33
2017-11-08T04:28:57.846Z,41.07
2017-11-08T04:31:27.466Z,43.00
2017-11-08T04:33:56.326Z,39.00
2017-11-08T04:36:25.159Z,39.00
2017-11-08T04:38:54.002Z,37.90
2017-11-08T04:41:22.848Z,39.83
2017-11-08T04:43:51.669Z,40.57
2017-11-08T04:46:20.527Z,38.50
2017-11-08T04:48:51.279Z,35.57
2017-11-08T04:51:20.096Z,42.10
2017-11-08T04:53:49.696Z,41.97
2017-11-08T04:56:19.316Z,32.43
2017-11-08T04:58:48.912Z,39.90
2017-11-08T05:01:19.267Z,42.03
2017-11-08T05:03:48.866Z,37.60
2017-11-08T05:06:17.712Z,39.13
2017-11-08T05:08:47.757Z,40.83
2017-11-08T05:11:17.383Z,35.57
2017-11-08T05:13:46.248Z,36.93
2017-11-08T05:16:15.096Z,38.57
2017-11-08T05:18:44.158Z,36.70
2017-11-08T05:21:13.024Z,33.87
2017-11-08T05:23:42.643Z,39.10
2017-11-08T05:26:11.471Z,37.50
2017-11-08T05:28:40.317Z,41.93
2017-11-08T05:31:09.932Z,43.00
2017-11-08T05:33:38.796Z,40.20
2017-11-08T05:36:07.646Z,47.30
2017-11-08T05:38:36.487Z,41.93
2017-11-08T05:41:06.123Z,44.47
2017-11-08T05:43:34.957Z,41.77
2017-11-08T05:46:03.803Z,43.10
2017-11-08T05:48:32.646Z,43.60
2017-11-08T05:51:01.507Z,40.30
2017-11-08T05:53:30.343Z,45.90
2017-11-08T05:55:59.243Z,45.00
2017-11-08T05:58:28.080Z,40.63
2017-11-08T06:00:57.703Z,50.63
2017-11-08T06:03:28.048Z,46.23
2017-11-08T06:05:56.902Z,45.27
2017-11-08T06:08:25.721Z,47.50
2017-11-08T06:10:54.554Z,54.27
2017-11-08T06:13:23.402Z,51.33
2017-11-08T06:15:52.231Z,46.97
2017-11-08T06:18:22.591Z,49.97
2017-11-08T06:20:52.200Z,44.13
2017-11-08T06:23:21.812Z,48.80
2017-11-08T06:25:50.672Z,55.17
2017-11-08T06:28:19.536Z,50.67
2017-11-08T06:30:48.406Z,55.57
2017-11-08T06:33:17.244Z,53.40
2017-11-08T06:35:46.077Z,50.97
2017-11-08T06:38:14.923Z,55.10
2017-11-08T06:40:44.175Z,53.63
2017-11-08T06:43:13.032Z,64.83
2017-11-08T06:45:42.966Z,51.57
2017-11-08T06:48:11.808Z,48.80
2017-11-08T06:50:40.872Z,50.43
2017-11-08T06:53:17.012Z,58.00
2017-11-08T07:09:09.240Z,52.70
2017-11-08T07:11:38.859Z,55.43
2017-11-08T07:14:07.689Z,56.30
2017-11-08T07:16:36.958Z,55.90
2017-11-08T07:19:05.798Z,63.97
2017-11-08T07:21:34.639Z,49.17
2017-11-08T07:24:03.479Z,55.37
2017-11-08T07:26:33.108Z,53.50
2017-11-08T07:29:02.739Z,53.57
2017-11-08T07:31:31.581Z,47.73
2017-11-08T07:34:01.703Z,54.57
2017-11-08T07:36:30.560Z,58.80
2017-11-08T07:38:59.384Z,60.50
2017-11-08T07:41:28.237Z,62.43
2017-11-08T07:43:57.080Z,49.10
2017-11-08T07:46:26.697Z,57.20
2017-11-08T07:48:56.319Z,66.75
2017-11-08T07:51:25.170Z,59.47
2017-11-08T07:53:54.014Z,63.38
2017-11-08T07:56:22.846Z,56.30
2017-11-08T07:58:51.728Z,52.50
2017-11-08T08:01:20.571Z,57.47
2017-11-08T08:03:49.434Z,58.73
2017-11-08T08:06:18.270Z,56.63
2017-11-08T08:08:47.894Z,54.73
2017-11-08T08:11:20.335Z,56.43
2017-11-08T08:13:49.184Z,53.10
2017-11-08T08:16:18.027Z,57.73
2017-11-08T08:18:47.660Z,59.93
2017-11-08T08:21:16.507Z,57.83
2017-11-08T08:23:45.411Z,57.50
2017-11-08T08:26:15.165Z,59.43
2017-11-08T08:28:44.010Z,53.57
2017-11-08T08:31:13.701Z,59.93
2017-11-08T08:33:42.538Z,54.43
2017-11-08T08:36:11.380Z,53.50
2017-11-08T08:38:40.235Z,55.07
2017-11-08T08:41:09.098Z,53.90
2017-11-08T08:43:38.284Z,63.40
2017-11-08T08:46:07.924Z,61.27
2017-11-08T08:48:36.780Z,57.87
2017-11-08T08:51:06.417Z,50.87
2017-11-08T08:53:35.266Z,59.60
2017-11-08T08:56:04.139Z,50.03
2017-11-08T08:58:33.766Z,47.50
2017-11-08T09:01:02.622Z,58.10
2017-11-08T09:03:35.008Z,54.27
2017-11-08T09:06:04.626Z,44.30
2017-11-08T09:08:33.472Z,51.53
2017-11-08T09:11:02.327Z,52.87
2017-11-08T09:13:31.163Z,49.97
2017-11-08T09:16:01.394Z,63.50
2017-11-08T09:18:31.007Z,40.67
2017-11-08T09:21:00.636Z,50.43
2017-11-08T09:23:30.395Z,52.03
2017-11-08T09:25:59.258Z,56.10
2017-11-08T09:28:28.103Z,50.23
2017-11-08T09:30:57.706Z,48.30
2017-11-08T09:33:27.335Z,49.70
2017-11-08T09:35:56.179Z,50.93
2017-11-08T09:38:25.037Z,51.53
2017-11-08T09:40:53.951Z,51.50
2017-11-08T09:43:22.825Z,50.23
2017-11-08T09:45:51.663Z,53.70
2017-11-08T09:48:21.364Z,55.77
2017-11-08T09:50:50.234Z,57.63
2017-11-08T09:53:19.848Z,49.47
2017-11-08T09:55:51.406Z,44.20
2017-11-08T09:58:21.045Z,54.80
2017-11-08T10:00:51.854Z,52.60
2017-11-08T10:03:21.048Z,62.20
2017-11-08T10:05:50.680Z,46.80
2017-11-08T10:08:19.569Z,53.20
2017-11-08T10:10:48.437Z,51.33
2017-11-08T10:13:19.135Z,51.80
2017-11-08T10:15:48.015Z,49.53
2017-11-08T10:18:16.845Z,48.30
2017-11-08T10:20:46.473Z,47.67
2017-11-08T10:23:15.368Z,50.87
2017-11-08T10:25:44.336Z,50.47
2017-11-08T10:28:13.969Z,50.23
2017-11-08T10:30:43.575Z,51.47
2017-11-08T10:33:12.446Z,53.00
2017-11-08T10:35:42.076Z,50.37
2017-11-08T10:38:10.911Z,49.50
2017-11-08T10:40:39.765Z,47.73
2017-11-08T10:43:08.571Z,45.60
2017-11-08T10:45:37.433Z,51.73
2017-11-08T10:48:06.283Z,56.47
2017-11-08T10:50:35.130Z,47.70
2017-11-08T10:53:03.995Z,50.10
2017-11-08T10:55:32.845Z,44.10
2017-11-08T10:58:02.475Z,52.43
2017-11-08T11:00:32.980Z,44.33
2017-11-08T11:03:06.533Z,47.53
2017-11-08T11:05:35.400Z,51.27
2017-11-08T11:08:04.248Z,45.00
2017-11-08T11:10:33.712Z,54.23
2017-11-08T11:13:03.487Z,49.77
2017-11-08T11:15:33.084Z,47.97
2017-11-08T11:18:02.749Z,45.40
2017-11-08T11:20:31.624Z,53.37
2017-11-08T11:23:00.484Z,47.40
2017-11-08T11:25:30.107Z,44.90
2017-11-08T11:27:58.988Z,40.70
2017-11-08T11:30:27.834Z,45.83
2017-11-08T11:32:56.680Z,48.03
2017-11-08T11:35:25.530Z,47.07
2017-11-08T11:37:54.393Z,45.67
2017-11-08T11:40:23.272Z,47.27
2017-11-08T11:42:52.142Z,45.50
2017-11-08T11:45:20.997Z,48.43
2017-11-08T11:47:49.852Z,42.00
2017-11-08T11:50:18.690Z,46.37
2017-11-08T11:52:48.337Z,49.10
2017-11-08T11:55:17.203Z,39.33
2017-11-08T11:57:46.067Z,49.20
2017-11-08T12:00:14.922Z,58.87
2017-11-08T12:02:43.803Z,45.63
2017-11-08T12:05:12.691Z,49.37
2017-11-08T12:07:41.536Z,50.40
2017-11-08T12:10:11.168Z,47.77
2017-11-08T12:12:40.854Z,42.80
2017-11-08T12:15:10.520Z,44.60
2017-11-08T12:17:39.375Z,47.00
2017-11-08T12:20:09.006Z,43.23
2017-11-08T12:22:37.855Z,48.40
2017-11-08T12:25:06.702Z,47.47
2017-11-08T12:27:35.544Z,44.37
2017-11-08T12:30:06.246Z,47.43
2017-11-08T12:32:35.065Z,53.03
2017-11-08T12:35:06.698Z,45.60
2017-11-08T12:37:35.555Z,47.27
2017-11-08T12:40:04.410Z,53.30
2017-11-08T12:42:33.307Z,46.40
2017-11-08T12:58:29.241Z,48.93
2017-11-08T13:00:58.083Z,44.80
2017-11-08T13:03:27.712Z,52.83
2017-11-08T13:06:02.671Z,48.93
2017-11-08T13:08:31.525Z,51.53
2017-11-08T13:11:05.937Z,48.40
2017-11-08T13:13:35.756Z,56.30
2017-11-08T13:16:04.596Z,46.83
2017-11-08T13:18:33.428Z,49.80
2017-11-08T13:21:02.307Z,53.50
2017-11-08T13:23:31.141Z,51.17
2017-11-08T13:26:00.024Z,50.07
2017-11-08T13:28:28.924Z,60.30
2017-11-08T13:30:57.798Z,53.13
2017-11-08T13:33:27.426Z,59.50
2017-11-08T13:35:56.281Z,53.23
2017-11-08T13:38:25.906Z,56.50
2017-11-08T13:40:55.516Z,59.70
2017-11-08T13:43:25.280Z,63.57
2017-11-08T13:45:54.115Z,51.70
2017-11-08T13:48:23.740Z,58.97
2017-11-08T13:50:52.593Z,53.43
2017-11-08T13:53:22.197Z,62.00
2017-11-08T13:55:51.874Z,60.80
2017-11-08T13:58:20.707Z,55.93
2017-11-08T14:00:49.576Z,63.73
2017-11-08T14:03:19.209Z,61.60
2017-11-08T14:05:48.088Z,57.80
2017-11-08T14:08:16.931Z,59.17
2017-11-08T14:10:45.836Z,58.67
2017-11-08T14:13:15.475Z,58.90
2017-11-08T14:15:45.188Z,58.90
2017-11-08T14:18:14.067Z,63.50
2017-11-08T14:20:43.072Z,61.07
2017-11-08T14:23:11.938Z,56.47
2017-11-08T14:25:40.781Z,59.43
2017-11-08T14:28:09.666Z,58.63
2017-11-08T14:30:38.605Z,62.93
2017-11-08T14:33:07.457Z,60.37
2017-11-08T14:35:39.773Z,67.97
2017-11-08T14:38:08.603Z,60.70
2017-11-08T14:40:37.456Z,67.10
2017-11-08T14:43:07.100Z,63.90
2017-11-08T14:45:35.956Z,60.67
2017-11-08T14:48:05.568Z,68.47
2017-11-08T14:50:35.220Z,60.10
2017-11-08T14:53:07.890Z,67.43
2017-11-08T14:55:37.096Z,64.93
2017-11-08T14:58:05.936Z,67.83
2017-11-08T15:00:34.847Z,61.90
2017-11-08T15:03:05.218Z,76.50
2017-11-08T15:05:34.601Z,74.60
2017-11-08T15:08:03.547Z,65.30
2017-11-08T15:10:36.268Z,68.07
2017-11-08T15:13:05.152Z,66.67
2017-11-08T15:15:34.747Z,69.33
2017-11-08T15:18:04.373Z,74.23
2017-11-08T15:20:33.244Z,70.13
2017-11-08T15:23:04.672Z,65.90
2017-11-08T15:25:33.525Z,71.47
2017-11-08T15:28:02.359Z,74.07
2017-11-08T15:30:31.971Z,67.20
2017-11-08T15:33:01.598Z,73.33
2017-11-08T15:35:31.241Z,77.73
2017-11-08T15:38:00.084Z,76.53
2017-11-08T15:40:29.724Z,89.33
2017-11-08T15:42:58.569Z,75.20
2017-11-08T15:45:28.202Z,86.80
2017-11-08T15:47:57.864Z,80.87
2017-11-08T15:50:26.726Z,80.43
2017-11-08T15:52:55.555Z,85.37
2017-11-08T15:55:24.407Z,87.77
2017-11-08T15:57:54.013Z,80.77
2017-11-08T16:00:23.665Z,84.53
2017-11-08T16:02:52.483Z,77.77
2017-11-08T16:05:21.340Z,81.43
2017-11-08T16:07:50.212Z,85.80
2017-11-08T16:10:19.073Z,85.03
2017-11-08T16:12:50.603Z,91.60
2017-11-08T16:15:19.490Z,91.43
2017-11-08T16:17:52.213Z,84.63
2017-11-08T16:20:22.084Z,78.20
2017-11-08T16:22:50.921Z,94.50
2017-11-08T16:25:20.024Z,86.03
2017-11-08T16:27:48.853Z,75.87
2017-11-08T16:30:17.692Z,91.23
2017-11-08T16:32:46.557Z,97.80
2017-11-08T16:35:16.187Z,90.30
2017-11-08T16:37:45.050Z,92.00
2017-11-08T16:40:14.689Z,91.53
2017-11-08T16:42:43.565Z,89.53
2017-11-08T16:45:13.179Z,92.60
2017-11-08T16:47:42.057Z,84.77
2017-11-08T16:50:10.910Z,95.43
2017-11-08T16:52:39.775Z,89.07
2017-11-08T16:55:08.699Z,83.70
2017-11-08T16:57:37.563Z,87.60
2017-11-08T17:00:06.533Z,88.90
2017-11-08T17:02:35.413Z,91.90
2017-11-08T17:05:04.280Z,80.83
2017-11-08T17:07:34.202Z,85.10
2017-11-08T17:10:03.838Z,86.40
2017-11-08T17:12:32.746Z,90.57
2017-11-08T17:15:01.690Z,92.13
2017-11-08T17:17:30.580Z,90.20
2017-11-08T17:20:00.318Z,90.70
2017-11-08T17:22:29.230Z,82.43
2017-11-08T17:24:58.120Z,87.27
2017-11-08T17:27:28.025Z,82.80
2017-11-08T17:29:56.899Z,84.43
2017-11-08T17:32:26.082Z,87.27
2017-11-08T17:34:55.705Z,90.97
2017-11-08T17:37:24.589Z,94.43
2017-11-08T17:39:53.458Z,93.27
2017-11-08T17:42:23.106Z,94.37
2017-11-08T17:44:51.929Z,99.20
2017-11-08T17:47:21.549Z,109.57
2017-11-08T17:49:50.652Z,105.10
2017-11-08T17:52:20.336Z,100.77
2017-11-08T17:54:49.805Z,105.87
2017-11-08T17:57:20.588Z,101.10
2017-11-08T17:59:49.435Z,105.70
2017-11-08T18:02:18.316Z,102.37
2017-11-08T18:04:47.181Z,104.83
2017-11-08T18:07:16.517Z,100.30
2017-11-08T18:09:45.370Z,94.67
2017-11-08T18:12:15.001Z,95.00
2017-11-08T18:14:43.938Z,88.57
2017-11-08T18:17:12.846Z,104.50
2017-11-08T18:19:41.685Z,96.30
2017-11-08T18:22:10.546Z,100.90
2017-11-08T18:24:40.225Z,111.73
2017-11-08T18:27:09.075Z,96.40
2017-11-08T18:29:37.916Z,106.77
2017-11-08T18:32:06.754Z,105.83
2017-11-08T18:34:35.628Z,102.00
2017-11-08T18:37:05.321Z,97.30
2017-11-08T18:39:35.020Z,107.27
2017-11-08T18:42:08.837Z,99.83
2017-11-08T18:44:38.529Z,103.70
2017-11-08T18:47:08.469Z,103.63
2017-11-08T18:49:37.462Z,105.40
2017-11-08T18:52:07.091Z,98.10
2017-11-08T18:54:37.001Z,99.53
2017-11-08T18:57:05.888Z,109.70
2017-11-08T18:59:35.092Z,323.20
2017-11-08T19:02:03.951Z,204.07
2017-11-08T19:04:32.807Z,139.23
2017-11-08T19:07:02.499Z,110.57
2017-11-08T19:09:31.451Z,98.70
2017-11-08T19:12:00.332Z,104.60
2017-11-08T19:14:30.319Z,100.00
2017-11-08T19:16:59.146Z,127.43
2017-11-08T19:19:28.028Z,112.67
2017-11-08T19:21:56.937Z,103.90
2017-11-08T19:24:26.030Z,94.57
2017-11-08T19:26:54.966Z,93.47
2017-11-08T19:29:24.165Z,96.77
2017-11-08T19:31:53.007Z,99.87
2017-11-08T19:34:21.882Z,120.10
2017-11-08T19:36:51.036Z,111.70
2017-11-08T19:39:19.893Z,101.67
2017-11-08T19:41:48.779Z,98.73
2017-11-08T19:44:17.696Z,100.03
2017-11-08T19:46:46.612Z,100.17
2017-11-08T19:49:16.224Z,102.50
2017-11-08T19:51:46.127Z,104.50
2017-11-08T19:54:15.810Z,90.43
2017-11-08T19:56:44.725Z,98.53
2017-11-08T19:59:13.623Z,88.03
2017-11-08T20:01:42.452Z,91.23
2017-11-08T20:04:12.267Z,88.07
2017-11-08T20:06:42.081Z,93.63
2017-11-08T20:09:11.185Z,82.03
2017-11-08T20:11:40.077Z,88.60
2017-11-08T20:14:08.964Z,83.47
2017-11-08T20:16:38.570Z,90.50
2017-11-08T20:19:08.205Z,96.17
2017-11-08T20:21:37.063Z,99.87
2017-11-08T20:24:07.564Z,94.67
2017-11-08T20:26:37.078Z,102.50
2017-11-08T20:29:06.623Z,96.10
2017-11-08T20:31:35.885Z,95.27
2017-11-08T20:34:04.729Z,87.97
2017-11-08T20:36:33.602Z,106.57
2017-11-08T20:39:02.650Z,82.20
2017-11-08T20:41:31.503Z,89.03
2017-11-08T20:44:00.400Z,95.33
2017-11-08T20:46:29.473Z,97.30
2017-11-08T20:48:59.075Z,86.77
2017-11-08T20:51:28.775Z,95.00
2017-11-08T20:53:57.949Z,89.17
2017-11-08T20:56:26.822Z,91.50
2017-11-08T20:58:55.683Z,95.83
2017-11-08T21:01:25.309Z,94.90
2017-11-08T21:03:54.957Z,96.07
2017-11-08T21:06:23.834Z,90.83
2017-11-08T21:08:52.821Z,82.80
2017-11-08T21:11:22.353Z,92.03
2017-11-08T21:13:51.188Z,89.07
2017-11-08T21:16:20.902Z,100.40
2017-11-08T21:18:49.746Z,95.40
2017-11-08T21:21:18.845Z,81.60
2017-11-08T21:23:48.272Z,87.20
2017-11-08T21:26:17.909Z,90.43
2017-11-08T21:28:46.793Z,88.00
2017-11-08T21:31:16.366Z,97.00
2017-11-08T21:33:46.274Z,95.43
2017-11-08T21:36:15.125Z,93.93
2017-11-08T21:38:44.425Z,103.93
2017-11-08T21:41:13.287Z,99.37
2017-11-08T21:43:42.356Z,101.50
2017-11-08T21:46:12.006Z,100.40
2017-11-08T21:48:40.869Z,96.67
2017-11-08T21:51:09.725Z,89.20
2017-11-08T21:53:40.109Z,97.73
2017-11-08T21:56:08.963Z,99.53
2017-11-08T21:58:38.589Z,100.97
2017-11-08T22:01:07.740Z,96.67
2017-11-08T22:03:36.578Z,98.90
2017-11-08T22:06:05.446Z,105.00
2017-11-08T22:08:35.063Z,104.87
2017-11-08T22:11:04.032Z,108.10
2017-11-08T22:16:08.883Z,100.53
2017-11-08T22:18:37.752Z,78.50
2017-11-08T22:21:06.728Z,94.27
2017-11-08T22:23:35.562Z,99.83
2017-11-08T22:26:05.195Z,91.20
2017-11-08T22:28:34.033Z,84.97
2017-11-08T22:31:03.673Z,96.30
2017-11-08T22:33:32.564Z,101.67
2017-11-08T22:36:01.399Z,107.90
2017-11-08T22:38:30.251Z,100.03
2017-11-08T22:40:59.120Z,104.83
2017-11-08T22:43:27.982Z,102.30
2017-11-08T22:45:57.834Z,105.23
2017-11-08T22:48:26.694Z,100.17
2017-11-08T22:50:56.313Z,104.43
2017-11-08T22:53:25.184Z,105.93
2017-11-08T22:55:54.368Z,111.43
2017-11-08T22:58:23.240Z,101.90
2017-11-08T23:00:56.558Z,103.40
2017-11-08T23:03:26.248Z,100.43
2017-11-08T23:05:55.866Z,105.73
2017-11-08T23:08:24.701Z,105.67
2017-11-08T23:10:53.557Z,105.10
2017-11-08T23:13:22.435Z,104.63
2017-11-08T23:15:51.630Z,105.00
2017-11-08T23:18:21.236Z,92.63
2017-11-08T23:20:50.877Z,102.27
2017-11-08T23:23:19.725Z,101.57
2017-11-08T23:25:49.360Z,106.10
2017-11-08T23:28:18.228Z,96.37
2017-11-08T23:30:47.920Z,109.53
2017-11-08T23:33:16.764Z,103.80
2017-11-08T23:35:45.645Z,111.47
2017-11-08T23:38:14.504Z,114.10
2017-11-08T23:40:44.135Z,107.30
2017-11-08T23:43:12.989Z,112.20
2017-11-08T23:45:43.186Z,106.20
2017-11-08T23:48:12.049Z,114.50
2017-11-08T23:50:40.924Z,105.60
2017-11-08T23:53:10.725Z,108.07
2017-11-08T23:55:39.576Z,100.07
2017-11-08T23:58:09.201Z,105.47
